createdAt,value
2019-03-04T00:02:29.762Z,78.50
2019-03-04T00:05:00.293Z,78.50
2019-03-04T00:07:30.615Z,78.70
2019-03-04T00:10:00.937Z,78.60
2019-03-04T00:12:31.346Z,78.30
2019-03-04T00:15:01.694Z,77.80
2019-03-04T00:17:32.023Z,77.40
2019-03-04T00:20:02.362Z,77.10
2019-03-04T00:22:32.695Z,77.20
2019-03-04T00:25:05.239Z,77.40
2019-03-04T00:27:35.575Z,77.30
2019-03-04T00:30:11.711Z,76.60
2019-03-04T00:32:42.053Z,76.70
2019-03-04T00:35:12.411Z,76.30
2019-03-04T00:37:42.733Z,76.20
2019-03-04T00:40:18.059Z,75.90
2019-03-04T00:42:48.390Z,75.70
2019-03-04T00:45:18.727Z,75.60
2019-03-04T00:47:49.064Z,75.50
2019-03-04T00:50:21.253Z,74.90
2019-03-04T00:52:51.604Z,75.10
2019-03-04T00:55:21.941Z,74.60
2019-03-04T00:57:52.282Z,74.50
2019-03-04T01:00:25.996Z,74.90
2019-03-04T01:02:56.327Z,74.10
2019-03-04T01:05:26.728Z,74.10
2019-03-04T01:07:57.057Z,74.50
2019-03-04T01:10:27.661Z,74.10
2019-03-04T01:12:58.012Z,74.00
2019-03-04T01:15:29.300Z,73.90
2019-03-04T01:18:01.772Z,74.20
2019-03-04T01:20:32.109Z,74.60
2019-03-04T01:23:02.435Z,73.90
2019-03-04T01:25:32.774Z,73.70
2019-03-04T01:28:03.125Z,74.10
2019-03-04T01:30:33.472Z,74.10
2019-03-04T01:33:03.807Z,73.90
2019-03-04T01:35:34.517Z,73.60
2019-03-04T01:38:04.916Z,73.70
2019-03-04T01:40:35.274Z,74.00
2019-03-04T01:43:05.601Z,73.70
2019-03-04T01:45:35.948Z,73.80
2019-03-04T01:48:06.273Z,73.70
2019-03-04T01:50:36.608Z,73.80
2019-03-04T01:53:06.939Z,73.80
2019-03-04T01:55:37.275Z,73.60
2019-03-04T01:58:07.620Z,73.60
2019-03-04T02:00:37.963Z,73.50
2019-03-04T02:03:08.311Z,73.70
2019-03-04T02:05:38.630Z,73.80
2019-03-04T02:08:08.979Z,73.70
2019-03-04T02:10:39.307Z,74.60
2019-03-04T02:13:09.643Z,73.80
2019-03-04T02:15:39.978Z,73.80
2019-03-04T02:18:10.310Z,74.00
2019-03-04T02:20:40.639Z,74.10
2019-03-04T02:23:10.973Z,74.40
2019-03-04T02:25:45.921Z,74.30
2019-03-04T02:28:16.269Z,74.20
2019-03-04T02:30:46.597Z,74.70
2019-03-04T02:33:17.187Z,74.60
2019-03-04T02:35:47.518Z,74.70
2019-03-04T02:38:17.840Z,74.90
2019-03-04T02:40:48.459Z,75.10
2019-03-04T02:43:18.796Z,75.30
2019-03-04T02:45:49.144Z,75.10
2019-03-04T02:48:19.466Z,74.90
2019-03-04T02:50:49.799Z,74.70
2019-03-04T02:53:20.133Z,75.20
2019-03-04T02:55:50.461Z,74.30
2019-03-04T02:58:20.795Z,73.80
2019-03-04T03:00:52.109Z,73.70
2019-03-04T03:03:22.436Z,73.20
2019-03-04T03:05:52.806Z,73.30
2019-03-04T03:08:24.115Z,72.70
2019-03-04T03:10:54.443Z,72.80
2019-03-04T03:13:24.825Z,72.50
2019-03-04T03:15:55.166Z,72.00
2019-03-04T03:18:25.585Z,71.00
2019-03-04T03:20:55.928Z,70.90
2019-03-04T03:23:26.267Z,71.00
2019-03-04T03:25:56.875Z,71.10
2019-03-04T03:28:27.219Z,70.60
2019-03-04T03:30:57.552Z,70.50
2019-03-04T03:33:27.897Z,70.60
2019-03-04T03:35:58.232Z,70.50
2019-03-04T03:38:28.555Z,70.30
2019-03-04T03:40:58.921Z,69.70
2019-03-04T03:43:29.259Z,69.30
2019-03-04T03:45:59.622Z,68.80
2019-03-04T03:48:29.965Z,68.60
2019-03-04T03:51:00.301Z,68.70
2019-03-04T03:53:30.629Z,68.50
2019-03-04T03:56:00.978Z,68.50
2019-03-04T03:58:31.309Z,68.20
2019-03-04T04:01:01.646Z,67.60
2019-03-04T04:03:31.972Z,67.20
2019-03-04T04:06:02.324Z,67.80
2019-03-04T04:08:32.663Z,67.70
2019-03-04T04:11:03.003Z,67.40
2019-03-04T04:13:34.412Z,67.40
2019-03-04T04:16:04.753Z,66.60
2019-03-04T04:18:35.073Z,66.20
2019-03-04T04:21:05.444Z,65.90
2019-03-04T04:23:35.761Z,65.40
2019-03-04T04:26:07.730Z,65.60
2019-03-04T04:28:38.061Z,65.30
2019-03-04T04:31:08.404Z,65.60
2019-03-04T04:33:38.996Z,64.20
2019-03-04T04:36:09.347Z,64.70
2019-03-04T04:38:39.681Z,64.00
2019-03-04T04:41:10.025Z,64.10
2019-03-04T04:43:40.348Z,64.70
2019-03-04T04:46:10.703Z,66.10
2019-03-04T04:48:41.039Z,68.80
2019-03-04T04:51:11.378Z,69.10
2019-03-04T04:53:41.704Z,70.10
2019-03-04T04:56:12.036Z,71.20
2019-03-04T04:58:44.005Z,71.20
2019-03-04T05:01:14.342Z,72.10
2019-03-04T05:03:44.665Z,71.70
2019-03-04T05:06:15.016Z,71.70
2019-03-04T05:08:45.355Z,73.20
2019-03-04T05:11:15.689Z,75.90
2019-03-04T05:13:46.015Z,78.90
2019-03-04T05:16:16.685Z,80.00
2019-03-04T05:18:47.012Z,82.00
2019-03-04T05:21:17.352Z,83.50
2019-03-04T05:23:47.673Z,84.40
2019-03-04T05:26:18.017Z,85.00
2019-03-04T05:28:49.314Z,86.10
2019-03-04T05:31:19.656Z,86.40
2019-03-04T05:33:49.988Z,87.20
2019-03-04T05:36:20.599Z,87.40
2019-03-04T05:38:50.929Z,87.90
2019-03-04T05:41:21.269Z,88.30
2019-03-04T05:43:53.213Z,89.10
2019-03-04T05:46:23.558Z,89.40
2019-03-04T05:48:53.884Z,89.70
2019-03-04T05:51:24.233Z,90.00
2019-03-04T05:53:54.566Z,90.10
2019-03-04T05:56:24.903Z,90.50
2019-03-04T05:58:55.221Z,90.30
2019-03-04T06:01:28.960Z,90.30
2019-03-04T06:04:03.201Z,90.10
2019-03-04T06:06:50.592Z,89.80
2019-03-04T06:09:20.952Z,89.40
2019-03-04T06:11:51.308Z,88.90
2019-03-04T06:14:21.640Z,88.30
2019-03-04T06:16:52.020Z,87.70
2019-03-04T06:19:22.380Z,86.90
2019-03-04T06:21:52.853Z,86.30
2019-03-04T06:24:23.168Z,86.40
2019-03-04T06:26:53.765Z,86.20
2019-03-04T06:29:25.182Z,85.90
2019-03-04T06:31:55.527Z,84.80
2019-03-04T06:34:25.855Z,84.90
2019-03-04T06:36:56.187Z,84.40
2019-03-04T06:39:26.520Z,84.70
2019-03-04T06:41:56.868Z,85.30
2019-03-04T06:44:27.193Z,84.00
2019-03-04T06:46:57.527Z,83.60
2019-03-04T06:49:27.853Z,83.50
2019-03-04T06:51:58.266Z,83.30
2019-03-04T06:54:38.639Z,82.90
2019-03-04T06:57:13.137Z,82.40
2019-03-04T07:00:10.419Z,81.90
2019-03-04T07:02:45.764Z,81.70
2019-03-04T07:05:48.657Z,81.70
2019-03-04T07:08:41.638Z,80.80
2019-03-04T07:11:12.020Z,81.00
2019-03-04T07:13:42.328Z,78.90
2019-03-04T07:16:12.664Z,79.10
2019-03-04T07:18:43.022Z,79.00
2019-03-04T07:21:13.358Z,78.30
2019-03-04T07:23:43.697Z,78.40
2019-03-04T07:26:14.025Z,78.60
2019-03-04T07:28:44.365Z,78.90
2019-03-04T07:31:15.769Z,78.60
2019-03-04T07:33:46.104Z,78.20
2019-03-04T07:36:16.429Z,79.00
2019-03-04T07:38:53.344Z,79.30
2019-03-04T07:41:23.992Z,79.50
2019-03-04T07:43:54.276Z,80.30
2019-03-04T07:46:24.873Z,80.30
2019-03-04T07:48:55.218Z,80.70
2019-03-04T07:51:25.615Z,80.80
2019-03-04T07:53:55.951Z,80.60
2019-03-04T07:56:26.276Z,80.50
2019-03-04T07:58:56.648Z,81.20
2019-03-04T08:01:26.973Z,82.80
2019-03-04T08:03:57.309Z,83.80
2019-03-04T08:06:27.632Z,84.40
2019-03-04T08:09:17.108Z,84.50
2019-03-04T08:12:17.542Z,84.30
2019-03-04T08:14:49.147Z,85.10
2019-03-04T08:17:19.476Z,85.60
2019-03-04T08:19:49.828Z,85.40
2019-03-04T08:22:20.150Z,85.60
2019-03-04T08:24:52.385Z,85.10
2019-03-04T08:27:22.735Z,85.50
2019-03-04T08:29:53.093Z,85.10
2019-03-04T08:32:23.420Z,85.50
2019-03-04T08:34:53.748Z,85.90
2019-03-04T08:37:24.084Z,85.60
2019-03-04T08:39:54.417Z,85.70
2019-03-04T08:42:24.743Z,85.80
2019-03-04T08:44:55.076Z,86.10
2019-03-04T08:47:25.407Z,86.10
2019-03-04T08:49:55.747Z,86.20
2019-03-04T08:52:26.075Z,86.20
2019-03-04T08:54:56.422Z,86.70
2019-03-04T08:57:26.748Z,86.30
2019-03-04T08:59:57.091Z,86.80
2019-03-04T09:02:27.411Z,87.10
2019-03-04T09:04:57.750Z,87.30
2019-03-04T09:07:28.079Z,87.40
2019-03-04T09:09:58.408Z,87.80
2019-03-04T09:12:28.736Z,87.50
2019-03-04T09:15:02.087Z,87.60
2019-03-04T09:17:32.414Z,87.10
2019-03-04T09:20:02.831Z,86.70
2019-03-04T09:22:33.162Z,86.90
2019-03-04T09:25:04.675Z,86.80
2019-03-04T09:27:35.002Z,86.80
2019-03-04T09:30:10.072Z,86.50
2019-03-04T09:32:40.471Z,86.80
2019-03-04T09:35:14.691Z,85.80
2019-03-04T09:37:45.447Z,86.30
2019-03-04T09:40:25.780Z,86.00
2019-03-04T09:42:56.105Z,86.10
2019-03-04T09:45:26.447Z,86.20
2019-03-04T09:47:56.851Z,85.90
2019-03-04T09:50:29.857Z,84.60
2019-03-04T09:53:01.823Z,84.40
2019-03-04T09:55:32.163Z,85.30
2019-03-04T09:58:02.494Z,84.90
2019-03-04T10:00:46.363Z,81.90
2019-03-04T10:03:26.825Z,81.20
2019-03-04T10:06:28.560Z,80.20
2019-03-04T10:09:15.162Z,80.40
2019-03-04T10:12:04.784Z,78.10
2019-03-04T10:15:08.362Z,78.10
2019-03-04T10:17:55.685Z,76.80
2019-03-04T10:20:39.445Z,75.90
2019-03-04T10:23:28.673Z,76.40
2019-03-04T10:26:24.791Z,76.30
2019-03-04T10:29:20.616Z,76.10
2019-03-04T10:32:16.440Z,73.90
2019-03-04T10:35:26.419Z,74.80
2019-03-04T10:38:22.826Z,73.20
2019-03-04T10:41:24.830Z,72.50
2019-03-04T10:44:20.683Z,72.70
2019-03-04T10:46:58.666Z,71.80
2019-03-04T10:49:29.428Z,72.30
2019-03-04T10:52:02.649Z,69.60
2019-03-04T10:54:32.983Z,70.40
2019-03-04T10:57:03.306Z,71.20
2019-03-04T10:59:33.650Z,70.00
2019-03-04T11:02:04.232Z,68.70
2019-03-04T11:04:34.573Z,67.80
2019-03-04T11:07:05.132Z,66.70
2019-03-04T11:09:35.495Z,65.80
2019-03-04T11:12:05.908Z,63.70
2019-03-04T11:14:36.245Z,64.50
2019-03-04T11:17:06.583Z,65.30
2019-03-04T11:19:36.917Z,65.40
2019-03-04T11:22:09.019Z,64.70
2019-03-04T11:24:39.357Z,66.40
2019-03-04T11:27:09.697Z,65.90
2019-03-04T11:29:40.035Z,65.70
2019-03-04T11:32:10.517Z,65.80
2019-03-04T11:34:42.699Z,65.00
2019-03-04T11:37:12.889Z,66.40
2019-03-04T11:39:44.869Z,64.40
2019-03-04T11:42:15.206Z,64.30
2019-03-04T11:44:45.532Z,63.80
2019-03-04T11:47:17.520Z,63.50
2019-03-04T11:49:47.853Z,64.20
2019-03-04T11:52:18.189Z,63.90
2019-03-04T11:54:48.527Z,63.50
2019-03-04T11:57:18.872Z,63.70
2019-03-04T11:59:49.277Z,62.60
2019-03-04T12:02:19.613Z,62.30
2019-03-04T12:04:49.940Z,63.10
2019-03-04T12:07:20.276Z,63.20
2019-03-04T12:09:50.615Z,62.20
2019-03-04T12:12:20.949Z,61.20
2019-03-04T12:14:51.291Z,61.60
2019-03-04T12:17:22.704Z,60.30
2019-03-04T12:19:53.116Z,61.10
2019-03-04T12:22:24.623Z,60.50
2019-03-04T12:24:54.975Z,59.50
2019-03-04T12:27:25.309Z,59.40
2019-03-04T12:29:55.634Z,59.30
2019-03-04T12:32:27.856Z,58.70
2019-03-04T12:34:58.190Z,59.40
2019-03-04T12:37:30.142Z,58.40
2019-03-04T12:40:00.475Z,58.20
2019-03-04T12:42:30.809Z,58.40
2019-03-04T12:45:01.145Z,57.60
2019-03-04T12:47:31.557Z,57.10
2019-03-04T12:50:01.898Z,57.00
2019-03-04T12:52:32.309Z,57.30
2019-03-04T12:55:02.643Z,56.50
2019-03-04T12:57:32.979Z,56.50
2019-03-04T13:00:04.850Z,56.30
2019-03-04T13:02:36.430Z,56.80
2019-03-04T13:05:10.980Z,56.50
2019-03-04T13:07:42.279Z,56.50
2019-03-04T13:10:17.059Z,56.50
2019-03-04T13:12:47.776Z,56.30
2019-03-04T13:15:30.818Z,56.10
2019-03-04T13:18:03.189Z,56.90
2019-03-04T13:20:33.552Z,57.60
2019-03-04T13:23:04.270Z,58.00
2019-03-04T13:25:34.670Z,57.20
2019-03-04T13:28:08.591Z,57.70
2019-03-04T13:30:40.722Z,57.90
2019-03-04T13:33:11.414Z,58.30
2019-03-04T13:35:43.651Z,58.10
2019-03-04T13:38:14.054Z,57.80
2019-03-04T13:40:44.456Z,57.40
2019-03-04T13:43:14.787Z,57.40
2019-03-04T13:45:45.198Z,57.20
2019-03-04T13:48:15.544Z,57.70
2019-03-04T13:50:46.028Z,57.60
2019-03-04T13:53:16.369Z,57.80
2019-03-04T13:55:46.769Z,58.20
2019-03-04T13:58:17.119Z,58.70
2019-03-04T14:00:47.454Z,57.90
2019-03-04T14:03:17.791Z,58.60
2019-03-04T14:05:48.118Z,57.90
2019-03-04T14:08:18.537Z,58.40
2019-03-04T14:10:50.112Z,58.60
2019-03-04T14:13:20.459Z,58.00
2019-03-04T14:15:57.522Z,57.50
2019-03-04T14:18:27.860Z,57.30
2019-03-04T14:20:58.243Z,57.50
2019-03-04T14:23:28.586Z,57.60
2019-03-04T14:25:58.914Z,58.00
2019-03-04T14:28:29.249Z,57.90
2019-03-04T14:30:59.620Z,57.90
2019-03-04T14:33:29.955Z,57.30
2019-03-04T14:36:01.934Z,57.90
2019-03-04T14:38:32.271Z,57.60
2019-03-04T14:41:02.602Z,57.90
2019-03-04T14:43:32.935Z,58.10
2019-03-04T14:46:03.275Z,58.60
2019-03-04T14:48:33.647Z,59.00
2019-03-04T14:51:03.990Z,59.00
2019-03-04T14:53:34.376Z,59.40
2019-03-04T14:56:04.672Z,59.70
2019-03-04T14:58:35.013Z,60.20
2019-03-04T15:01:06.223Z,59.60
2019-03-04T15:03:36.555Z,61.50
2019-03-04T15:06:07.380Z,61.80
2019-03-04T15:08:37.799Z,61.40
2019-03-04T15:11:08.124Z,61.10
2019-03-04T15:13:38.464Z,61.00
2019-03-04T15:16:08.934Z,61.00
2019-03-04T15:18:39.263Z,60.60
2019-03-04T15:21:09.963Z,61.20
2019-03-04T15:23:41.343Z,61.30
2019-03-04T15:26:11.672Z,61.60
2019-03-04T15:28:42.010Z,61.70
2019-03-04T15:31:12.495Z,62.10
2019-03-04T15:33:42.901Z,62.70
2019-03-04T15:36:13.307Z,62.70
2019-03-04T15:38:43.699Z,62.80
2019-03-04T15:41:14.044Z,63.20
2019-03-04T15:43:44.371Z,63.20
2019-03-04T15:46:14.709Z,63.00
2019-03-04T15:48:45.050Z,63.60
2019-03-04T15:51:15.387Z,63.70
2019-03-04T15:53:45.716Z,64.00
2019-03-04T15:56:16.053Z,64.40
2019-03-04T15:58:46.377Z,64.50
2019-03-04T16:01:17.229Z,65.40
2019-03-04T16:03:47.549Z,64.60
2019-03-04T16:06:17.961Z,64.90
2019-03-04T16:08:48.287Z,65.10
2019-03-04T16:11:18.968Z,65.10
2019-03-04T16:13:55.113Z,64.50
2019-03-04T16:16:23.135Z,64.90
2019-03-04T16:18:53.470Z,64.80
2019-03-04T16:21:23.802Z,64.50
2019-03-04T16:23:54.131Z,65.10
2019-03-04T16:26:24.468Z,65.10
2019-03-04T16:28:56.341Z,65.60
2019-03-04T16:31:26.668Z,65.80
2019-03-04T16:33:56.998Z,65.70
2019-03-04T16:36:27.403Z,65.70
2019-03-04T16:38:57.757Z,65.80
2019-03-04T16:41:28.091Z,65.80
2019-03-04T16:43:58.417Z,65.80
2019-03-04T16:46:28.753Z,66.00
2019-03-04T16:48:59.096Z,66.00
2019-03-04T16:51:29.424Z,66.10
2019-03-04T16:53:59.792Z,66.00
2019-03-04T16:56:30.111Z,66.00
2019-03-04T16:59:00.512Z,66.20
2019-03-04T17:01:30.836Z,66.40
2019-03-04T17:04:01.164Z,66.60
2019-03-04T17:06:31.491Z,66.70
2019-03-04T17:09:01.818Z,66.90
2019-03-04T17:11:33.219Z,66.80
2019-03-04T17:14:03.594Z,67.20
2019-03-04T17:16:35.418Z,67.00
2019-03-04T17:19:05.744Z,67.30
2019-03-04T17:21:36.076Z,68.10
2019-03-04T17:24:07.782Z,68.70
2019-03-04T17:26:38.127Z,69.40
2019-03-04T17:29:08.462Z,70.30
2019-03-04T17:31:39.245Z,70.90
2019-03-04T17:34:09.577Z,71.60
2019-03-04T17:36:39.912Z,72.30
2019-03-04T17:39:10.238Z,72.50
2019-03-04T17:41:41.041Z,73.10
2019-03-04T17:44:30.705Z,73.40
2019-03-04T17:47:01.102Z,73.50
2019-03-04T17:49:31.776Z,73.90
2019-03-04T17:52:02.119Z,74.10
2019-03-04T17:54:32.450Z,74.10
2019-03-04T17:57:03.761Z,74.10
2019-03-04T17:59:34.087Z,74.40
2019-03-04T18:02:04.487Z,74.80
2019-03-04T18:04:34.820Z,74.60
2019-03-04T18:07:05.145Z,75.10
2019-03-04T18:09:35.484Z,75.50
2019-03-04T18:12:05.816Z,75.70
2019-03-04T18:14:36.154Z,76.00
2019-03-04T18:17:06.554Z,76.20
2019-03-04T18:19:36.879Z,76.60
2019-03-04T18:22:07.280Z,76.70
2019-03-04T18:24:37.628Z,77.20
2019-03-04T18:27:08.009Z,77.20
2019-03-04T18:30:00.508Z,78.20
2019-03-04T18:32:55.393Z,78.10
2019-03-04T18:35:41.997Z,78.30
2019-03-04T18:38:29.038Z,78.40
2019-03-04T18:41:24.644Z,78.70
2019-03-04T18:44:17.371Z,78.40
2019-03-04T18:47:09.964Z,78.30
2019-03-04T18:49:40.359Z,78.10
2019-03-04T18:52:10.693Z,78.10
2019-03-04T18:54:41.019Z,77.80
2019-03-04T18:57:11.369Z,77.80
2019-03-04T18:59:41.709Z,77.90
2019-03-04T19:02:13.947Z,78.10
2019-03-04T19:04:44.586Z,77.90
2019-03-04T19:07:14.921Z,78.10
2019-03-04T19:09:45.258Z,78.20
2019-03-04T19:12:15.597Z,77.90
2019-03-04T19:14:45.931Z,77.90
2019-03-04T19:17:16.340Z,77.80
2019-03-04T19:19:49.730Z,77.70
2019-03-04T19:22:21.697Z,78.00
2019-03-04T19:24:52.043Z,76.90
2019-03-04T19:27:22.376Z,76.60
2019-03-04T19:29:52.700Z,76.20
2019-03-04T19:32:23.023Z,76.10
2019-03-04T19:34:53.346Z,76.00
2019-03-04T19:37:24.729Z,76.10
2019-03-04T19:39:55.062Z,76.20
2019-03-04T19:42:25.391Z,76.10
2019-03-04T19:44:56.795Z,76.30
2019-03-04T19:47:27.126Z,76.70
2019-03-04T19:49:57.450Z,76.70
2019-03-04T19:52:31.883Z,77.10
2019-03-04T19:55:02.215Z,77.40
2019-03-04T19:57:34.414Z,77.60
2019-03-04T20:00:16.689Z,78.20
2019-03-04T20:02:48.219Z,78.10
2019-03-04T20:05:22.990Z,77.90
2019-03-04T20:07:54.948Z,77.70
2019-03-04T20:10:26.892Z,78.60
2019-03-04T20:12:57.291Z,77.60
2019-03-04T20:15:38.402Z,77.70
2019-03-04T20:18:08.729Z,77.90
2019-03-04T20:20:39.205Z,78.00
2019-03-04T20:23:09.536Z,78.10
2019-03-04T20:25:39.923Z,78.30
2019-03-04T20:28:11.962Z,78.60
2019-03-04T20:30:42.379Z,78.40
2019-03-04T20:33:13.783Z,78.80
2019-03-04T20:35:44.130Z,79.30
2019-03-04T20:38:33.872Z,79.60
2019-03-04T20:41:04.587Z,79.70
2019-03-04T20:43:35.109Z,79.80
2019-03-04T20:46:05.835Z,79.60
2019-03-04T20:48:36.244Z,79.90
2019-03-04T20:51:06.579Z,79.60
2019-03-04T20:53:36.916Z,79.70
2019-03-04T20:56:07.259Z,79.90
2019-03-04T20:58:38.559Z,79.80
2019-03-04T21:01:09.298Z,79.90
2019-03-04T21:03:39.732Z,79.80
2019-03-04T21:06:10.068Z,79.60
2019-03-04T21:08:40.401Z,79.50
2019-03-04T21:11:10.798Z,79.60
2019-03-04T21:13:41.123Z,79.50
2019-03-04T21:16:11.519Z,79.40
2019-03-04T21:18:41.873Z,79.40
2019-03-04T21:21:12.278Z,79.50
2019-03-04T21:23:42.615Z,79.50
2019-03-04T21:26:22.755Z,79.70
2019-03-04T21:29:15.177Z,79.70
2019-03-04T21:31:52.890Z,79.70
2019-03-04T21:34:47.222Z,79.60
2019-03-04T21:37:28.057Z,79.70
2019-03-04T21:40:03.001Z,79.60
2019-03-04T21:42:44.869Z,79.60
2019-03-04T21:45:57.929Z,79.20
2019-03-04T21:48:38.578Z,79.40
2019-03-04T21:51:25.373Z,79.20
2019-03-04T21:53:55.702Z,79.10
2019-03-04T21:56:47.378Z,78.70
2019-03-04T21:59:19.324Z,78.60
2019-03-04T22:02:27.601Z,78.30
2019-03-04T22:05:01.413Z,78.10
2019-03-04T22:07:31.943Z,77.70
2019-03-04T22:10:03.871Z,77.30
2019-03-04T22:12:35.808Z,77.10
2019-03-04T22:15:08.235Z,75.80
2019-03-04T22:17:38.558Z,75.40
2019-03-04T22:20:15.163Z,74.90
2019-03-04T22:22:45.491Z,74.10
2019-03-04T22:25:16.120Z,73.30
2019-03-04T22:27:46.530Z,73.00
2019-03-04T22:30:20.584Z,73.60
2019-03-04T22:32:50.954Z,73.40
2019-03-04T22:35:21.934Z,73.10
2019-03-04T22:37:53.230Z,73.00
2019-03-04T22:40:27.148Z,72.70
2019-03-04T22:42:57.473Z,72.60
2019-03-04T22:45:27.825Z,72.70
2019-03-04T22:47:58.145Z,72.40
2019-03-04T22:50:28.464Z,72.70
2019-03-04T22:52:58.818Z,72.30
2019-03-04T22:55:39.418Z,72.60
2019-03-04T22:58:09.793Z,72.70
2019-03-04T23:00:55.045Z,72.70
2019-03-04T23:03:32.075Z,73.40
2019-03-04T23:06:27.754Z,73.20
2019-03-04T23:08:58.084Z,73.20
2019-03-04T23:11:31.400Z,73.10
2019-03-04T23:14:15.613Z,73.50
2019-03-04T23:16:46.002Z,73.60
2019-03-04T23:19:16.336Z,73.70
2019-03-04T23:21:46.664Z,73.80
2019-03-04T23:24:17.004Z,73.80
2019-03-04T23:26:47.339Z,74.20
2019-03-04T23:29:17.675Z,74.10
2019-03-04T23:31:48.010Z,74.20
2019-03-04T23:34:18.335Z,74.40
2019-03-04T23:36:48.736Z,74.50
2019-03-04T23:39:19.073Z,74.40
2019-03-04T23:41:49.426Z,74.40
2019-03-04T23:44:19.745Z,74.50
2019-03-04T23:46:50.072Z,74.50
2019-03-04T23:49:20.405Z,74.30
2019-03-04T23:51:50.732Z,74.20
2019-03-04T23:54:21.069Z,74.00
2019-03-04T23:56:51.400Z,74.10
2019-03-04T23:59:21.738Z,74.90
